Terminal Aerodrome Forecast
Issued by NWS Topeka, KS

Home | Current Version | Previous Version | Graphics & Text | Print | Product List | Glossary On
Versions: 1 2 3 4 5 6 7 8 9 10 11 12 13 14 15 16
000
FTUS43 KTOP 031100
TAFTOP
TAF
KTOP 031121Z 0312/0412 20015G25KT P6SM OVC007
     FM031300 22014G22KT P6SM OVC013
     FM031500 25015G22KT P6SM SCT025
     FM032100 33015G22KT P6SM BKN030
     FM040200 36013KT P6SM BKN040=

USA.gov is the U.S. government's official web portal to all federal, state and local government web resources and services.